Cornwall, Illinois
Current Conditions -  °F | °C
As of 1:52 PM on Friday 21 Nov 2014 (Local Time) from KMLI Reporting Station
Clear Clear  
Wind Chill: 26°   Ceiling: Unl
Heat Index: 35°   Visibility: 10mi
Dew Point:   Wind: 15mph
Humidity: 30%   Direction: 150°SSE
Pressure: 30.3"   Gusts: NA
Location:  41.4097°N, 90.0293°W
Report Text: KMLI 211952Z 15013KT 10SM CLR 02/M14 A3030 RMK AO2 SLP268 T00171144
Loading
Personal Weather Stations






























Interactive Weather Map New forecast layout! Learn more

10-Day Weather Forecast

Advertisements
Track Severe Weather on mobile